Flight Track Log - Related Links

Times and Time Zones

All times are in EDT time to prevent confusion due to time zone crossing. See the USC1801 flight status page for this flight to view local times or setup timezone preferences in your user account.

Time Position Orientation Groundspeed Altitude Reporting Facility
EDT Latitude Longitude Course Direction KTS MPH feet Rate Location/Type
Fri 02:00:38 PM 45.4167 -73.7167 180° South 120 138 2,600  Level Montreal Center
Fri 02:01:38 PM 45.3667 -73.7333 193° South 130 150 3,700 1,050 Climbing Montreal Center
Fri 02:02:38 PM 45.3333 -73.7333 180° South 140 161 4,700 950 Climbing Montreal Center
Fri 02:03:38 PM 45.3000 -73.7500 199° South 130 150 5,600 650 Climbing Montreal Center
Fri 02:04:00 PM 45.1907 -73.9429 207° Southwest  Level Estimated
Fri 02:04:38 PM 45.2667 -73.7833 215° Southwest 160 184 6,000  Level Montreal Center
Fri 02:05:38 PM 45.2333 -73.8333 227° Southwest 170 196 6,100 50 Climbing Montreal Center
Fri 02:06:38 PM 45.1833 -73.8833 215° Southwest 180 207 6,100  Level Montreal Center
Fri 02:08:38 PM 45.1167 -73.9500 215° Southwest 180 207 6,100  Level Montreal Center
Fri 02:09:38 PM 45.0667 -74.0000 215° Southwest 180 207 6,100  Level Montreal Center
Fri 02:10:38 PM 45.0333 -74.0167 199° South 180 207 6,100  Level Montreal Center
Fri 02:11:38 PM 44.9833 -74.0667 215° Southwest 170 196 6,100 -50 Level Montreal Center
Fri 02:12:38 PM 44.9333 -74.1000 205° Southwest 180 207 6,000  Descending Montreal Center
Fri 02:13:38 PM 44.8833 -74.1000 180° South 180 207 6,100 50 Climbing Montreal Center
Fri 02:14:38 PM 44.8500 -74.1333 215° Southwest 180 207 6,100  Level Montreal Center
Fri 02:15:38 PM 44.8000 -74.1833 215° Southwest 180 207 6,100  Level Montreal Center
Fri 02:16:38 PM 44.7500 -74.2000 193° South 180 207 6,100  Level Montreal Center
Fri 02:17:38 PM 44.7167 -74.2167 200° South 180 207 6,100  Level Montreal Center
Fri 02:18:38 PM 44.6667 -74.2667 215° Southwest 180 207 6,100  Level Montreal Center
Fri 02:19:38 PM 44.6333 -74.3000 215° Southwest 180 207 6,100 -50 Level Montreal Center
Fri 02:20:38 PM 44.6000 -74.3167 200° South 180 207 6,000 -50 Descending Montreal Center
Fri 02:21:38 PM 44.5500 -74.3667 215° Southwest 180 207 6,000  Level Montreal Center
Fri 02:22:38 PM 44.5000 -74.4000 205° Southwest 180 207 6,000 300 Level Montreal Center
Fri 02:23:38 PM 44.4667 -74.4167 200° South 170 196 6,600 700 Climbing Montreal Center
Fri 02:24:38 PM 44.4167 -74.4500 205° Southwest 150 173 7,400 700 Climbing Montreal Center
Fri 02:25:38 PM 44.3833 -74.4667 200° South 150 173 8,000 300 Climbing Montreal Center
Fri 02:26:38 PM 44.3500 -74.5167 227° Southwest 160 184 8,000  Level Montreal Center
Fri 02:27:38 PM 44.3000 -74.5500 206° Southwest 170 196 8,000 -50 Level Montreal Center
Fri 02:28:38 PM 44.2500 -74.5667 193° South 180 207 7,900 -50 Descending Montreal Center
Fri 02:29:38 PM 44.2167 -74.6000 216° Southwest 180 207 7,900  Level Montreal Center
Fri 02:30:38 PM 44.1667 -74.6333 206° Southwest 170 196 7,900  Level Montreal Center
Fri 02:31:38 PM 44.1333 -74.6667 216° Southwest 170 196 7,900 50 Level Montreal Center
Fri 02:32:38 PM 44.0833 -74.6833 193° South 170 196 8,000 50 Climbing Montreal Center
Fri 02:33:38 PM 44.0500 -74.7333 227° Southwest 180 207 8,000  Level Montreal Center
Fri 02:34:38 PM 44.0000 -74.7667 206° Southwest 170 196 8,000  Level Montreal Center
Fri 02:35:55 PM 43.9536 -74.7992 207° Southwest 181 208 8,000  Level Boston Center
Fri 02:36:54 PM 43.9200 -74.8208 205° Southwest 181 208 8,000  Level Boston Center
Fri 02:37:55 PM 43.8669 -74.8592 208° Southwest 181 208 8,000  Level Boston Center
Fri 02:38:55 PM 43.8225 -74.8892 206° Southwest 181 208 8,000  Level Boston Center
Fri 02:39:55 PM 43.7783 -74.9189 206° Southwest 181 208 8,000  Level Boston Center
Fri 02:41:06 PM 43.7358 -74.9517 209° Southwest 181 208 8,000  Level Boston Center
Fri 02:42:18 PM 43.6808 -74.9894 206° Southwest 181 208 8,000  Level Boston Center
Fri 02:43:19 PM 43.6278 -75.0244 206° Southwest 181 208 8,000  Level Boston Center
Fri 02:45:00 PM 43.5613 -75.0694 206° Southwest  Level FlightAware Approximate
Fri 02:46:19 PM 43.4944 -75.1192 206° Southwest 181 208 8,000  Level Boston Center
Fri 02:47:19 PM 43.4500 -75.1486 206° Southwest 181 208 7,900 -50 Descending Boston Center
Fri 02:48:19 PM 43.4033 -75.1808 207° Southwest 181 208 7,900 48 Level Boston Center
Fri 02:49:24 PM 43.3500 -75.2269 212° Southwest 181 208 8,000 50 Climbing Boston Center
Fri 02:50:19 PM 43.3078 -75.2478 200° South 181 208 8,000  Level Boston Center
Fri 02:51:25 PM 43.2569 -75.2853 208° Southwest 182 209 8,000  Level Boston Center
Fri 02:52:20 PM 43.2167 -75.3147 208° Southwest 180 207 8,000  Level Boston Center
Fri 02:53:20 PM 43.1739 -75.3500 211° Southwest 177 204 8,000  Level Boston Center
Fri 02:54:15 PM 43.1317 -75.3736 202° Southwest 182 209 8,000  Level Boston Center
Fri 02:55:22 PM 43.0831 -75.4025 203° Southwest 181 208 8,000  Level Boston Center
Fri 02:56:22 PM 43.0342 -75.4369 207° Southwest 180 207 8,000  Level Boston Center
Fri 02:57:17 PM 42.9981 -75.4608 206° Southwest 179 206 8,000  Level Boston Center
Fri 02:58:18 PM 42.9472 -75.4953 206° Southwest 179 206 8,000  Level Boston Center
Fri 02:59:18 PM 42.9047 -75.5242 206° Southwest 177 204 8,000  Level Boston Center
Fri 03:00:19 PM 42.8622 -75.5533 207° Southwest 174 200 8,000  Level Boston Center
Fri 03:01:20 PM 42.8175 -75.5850 207° Southwest 178 205 8,000  Level Boston Center
Fri 03:02:20 PM 42.7731 -75.6139 206° Southwest 178 205 8,000  Level Boston Center
Fri 03:03:27 PM 42.7261 -75.6483 208° Southwest 177 204 8,000 47 Level Boston Center
Fri 03:04:28 PM 42.6794 -75.6797 206° Southwest 174 200 8,100 98 Climbing Boston Center
Fri 03:06:00 PM 42.6111 -75.7122 199° South  Level FlightAware Approximate
Fri 03:13:00 PM 42.3121 -75.9044 202° Southwest  Level FlightAware Approximate
Fri 03:14:00 PM 42.2684 -75.9287 202° Southwest  Level FlightAware Approximate
Fri 03:15:00 PM 42.2247 -75.9530 202° Southwest  Level FlightAware Approximate
Fri 03:16:00 PM 42.2000 -75.9667 202° Southwest  Level FlightAware Approximate
Fri 03:17:00 PM 42.2086 -75.9797 202° Southwest  Level Estimated
Fri 03:18:00 PM 42.2086 -75.9797 202° Southwest  Level Estimated
Fri 03:19:00 PM 42.2086 -75.9797 202° Southwest  Level Estimated
Fri 03:20:00 PM 42.2086 -75.9797 202° Southwest  Level Estimated
Fri 03:21:00 PM 42.2086 -75.9797 202° Southwest  Level Estimated
Fri 03:22:00 PM 42.2086 -75.9797 202° Southwest  Level Estimated
Fri 03:23:00 PM 42.2086 -75.9797 202° Southwest  Level Estimated
Fri 03:24:00 PM 42.2086 -75.9797 202° Southwest  Level Estimated
Fri 03:25:00 PM 42.2086 -75.9797 202° Southwest  Level Estimated
Fri 03:26:00 PM 42.2086 -75.9797 202° Southwest  Level Estimated
Fri 03:27:00 PM 42.2086 -75.9797 202° Southwest  Level Estimated

Login

Don't have an account? Register now (free) for customized features, flight alerts, and more!